ZGGG Airport Information

Runway Information
Runway 02L Length 11811 ft width 148 ft
Elevation 41 ft Threshold 0 ft Heading 14
Runway 20R Length 11811 ft Width 148 ft
Elevation 43 ft Threshold 0 ft Heading 194
Runway 02R Length 12467 ft width 197 ft
Elevation 45 ft Threshold 0 ft Heading 14
Runway 20L Length 12467 ft Width 197 ft
Elevation 48 ft Threshold 670 ft Heading 194
Airport Frequencies
Type APP Name GUANGZHOU Frequency 120.4 MHZ
Type ATIS Name ATIS Frequency 128.6 MHZ
Type CLD Name CLD Frequency 121.95 MHZ
Type GND Name GND Frequency 121.75 MHZ
Type TWR Name TWR Frequency 118.1 MHZ
Airport Navaids
Type VOR-DME Name Cencun Frequency 114600 KHZ
Type VOR-DME Name Conghua Frequency 113000 KHZ
Type NDB Name Baiyun Frequency 411 KHZ
Type NDB Name Yanbu Frequency 423 KHZ
Type VOR-DME Name Yuantan Frequency 108600 KHZ
Airport Weather Information & NOTAM
ADDS - METARS form results

(1216 UTC 16 November 2018)
Data provider http://aviationweather.gov/metar/data/
 
METAR text: ZGGG 161200Z 03002MPS 7000 -RA SCT010 OVC023 19/18 Q1016 NOSIG
Conditions at: ZGGG (GUANGZHOU/BAIYUN, CN) observed 1200 UTC 16 November 2018
Temperature: 19.0°C (66°F)
Dewpoint: 18.0°C (64°F) [RH = 94%]
Pressure (altimeter): 30.00 inches Hg (1016.0 mb)
Winds: from the NNE (30 degrees) at 5 MPH (4 knots; 2.1 m/s)
Visibility: 4 miles ( 7 km)
Ceiling: 2300 feet AGL
Clouds: scattered clouds at 1000 feet AGL
overcast cloud deck at 2300 feet AGL
Weather: -RA  (light rain)

METAR text: ZGGG 161130Z 05002MPS 6000 -RA SCT010 OVC023 19/18 Q1015 NOSIG
Conditions at: ZGGG (GUANGZHOU/BAIYUN, CN) observed 1130 UTC 16 November 2018
Temperature: 19.0°C (66°F)
Dewpoint: 18.0°C (64°F) [RH = 94%]
Pressure (altimeter): 29.97 inches Hg (1015.0 mb)
Winds: from the NE (50 degrees) at 5 MPH (4 knots; 2.1 m/s)
Visibility: 4 miles ( 6 km)
Ceiling: 2300 feet AGL
Clouds: scattered clouds at 1000 feet AGL
overcast cloud deck at 2300 feet AGL
Weather: -RA  (light rain)

Forecast for: ZGGG (GUANGZHOU/BAIYUN, CN)
Text: TAF ZGGG 160907Z 1612/1712 36004MPS 6000 -RA OVC030 TX22/1707Z TN18/1622Z
Forecast period: 1200 UTC 16 November 2018 to 1200 UTC 17 November 2018
Forecast type: FROM: standard forecast or significant change
Winds: from the N (360 degrees) at 9 MPH (8 knots; 4.1 m/s)
Visibility: 4 miles (6 km)
Ceiling: 3000 feet AGL
Clouds: overcast cloud deck at 3000 feet AGL
Weather: -RA  (light rain)